Messwerte Kano

Temperatur

Temperatur
°C
1618776000 21.00 21.00 29
1618779600 22.00 22.00 29
1618783200 23.00 23.00 29
1618786800 0.00 0.00 26
1618790400 1.00 1.00 26
1618794000 2.00 2.00
1618797600 3.00 3.00 25
1618801200 4.00 4.00 26
1618804800 5.00 5.00 26
1618808400 6.00 6.00 25
1618812000 7.00 7.00 25
1618815600 8.00 8.00 28
1618819200 9.00 9.00 28
1618822800 10.00 10.00 33
1618826400 11.00 11.00 35
1618830000 12.00 12.00
1618833600 13.00 13.00
1618837200 14.00 14.00
1618840800 15.00 15.00
1618844400 16.00 16.00
1618848000 17.00 17.00
1618851600 18.00 18.00 38
1618855200 19.00 19.00 36
1618858800 20.00 20.00 33

Aktuellste Messwerte

Wettercharakter
Wetter: meist klar
Temperatur
31 °C
Feuchtigkeit
35 %
Wind
5 km/hWindrichtung: Südwest
Luftdruck
1011 hPa
Messzeit: 19. April 2021, 21.00Datenquelle: METAR

Weitere Messstationen in der Nähe

Messstation Temperatur Entfernung
Zinder - 198 km
Maradi - 223 km
Tahoua 38 °C 475 km

Wind

Windrichtung Böen Mittelwind
° km/h km/h
1618776000 21.00 20.00 - 21.00 270° 5
1618779600 22.00 21.00 - 22.00 250° 5
1618783200 23.00 22.00 - 23.00 270° 5
1618786800 0.00 23.00 - 0.00 260° 5
1618790400 1.00 0.00 - 1.00 260° 5
1618794000 2.00 1.00 - 2.00
1618797600 3.00 2.00 - 3.00 210° 20
1618801200 4.00 3.00 - 4.00 200° 20
1618804800 5.00 4.00 - 5.00 230° 20
1618808400 6.00 5.00 - 6.00 230° 15
1618812000 7.00 6.00 - 7.00 240° 15
1618815600 8.00 7.00 - 8.00 230° 20
1618819200 9.00 8.00 - 9.00 230° 20
1618822800 10.00 9.00 - 10.00 240° 15
1618826400 11.00 10.00 - 11.00 240° 15
1618830000 12.00 11.00 - 12.00
1618833600 13.00 12.00 - 13.00
1618837200 14.00 13.00 - 14.00
1618840800 15.00 14.00 - 15.00
1618844400 16.00 15.00 - 16.00
1618848000 17.00 16.00 - 17.00
1618851600 18.00 17.00 - 18.00 60° 10
1618855200 19.00 18.00 - 19.00 80° 5
1618858800 20.00 19.00 - 20.00 60° 5

Ihre Wetterstation

Fehlt Ihre Wetterstation auf unserem Portal?

Schreiben Sie an network@meteonews.ch

Klima

Wann ist es am wärmsten? Wann regnet es am wenigsten? Unsere Klimadaten geben Auskunft.